Station Historical Data
Daily Summary for February 10, 2018 Units:  Both    English   Metric
« Previous Day
Next Day »
Daily Weekly Monthly Yearly Custom
  High: Low: Average:
Temperature: TemperatureF °F /  -17.8 °C 26.2 °F /  -3.2 °C 28.4 °F /  -2 °C
Dew Point: DewpointF °F /  -17.8 °C 23.4 °F /  -4.8 °C 25.6 °F /  -3.6 °C
Humidity: Humidity% 85% 89%
Wind Speed: WindSpeedMPHmph /  0km/h - 1.7mph /  2.7km/h
Wind Gust: WindSpeedGustMPHmph /  0km/h - -
Wind- - ENE
Pressure: PressureIn in /  0 hPa 30.07 in /  1018.2 hPa -
Precipitation: 0.00 in /  0 mm    
Historical Graphs
 
 
Tabular Data for February 10, 2018
Time Temperature Dew Point Pressure Wind Wind Speed Wind Gust Humidity Rainfall Rate (Hourly)
TemperatureF °F /  -17.8 °C DewpointF °F /  -17.8 °C PressureInin /  0hPa Calm     Humidity% HourlyPrecipInin /  0mm
00:04 27.9 °F /  -2.3 °C 25.3 °F /  -3.7 °C 30.18in /  1021.9hPa Calm     90% 0.00in /  0mm
00:09 28.0 °F /  -2.2 °C 25.4 °F /  -3.7 °C 30.18in /  1021.9hPa Calm     90% 0.00in /  0mm
00:14 28.1 °F /  -2.2 °C 25.5 °F /  -3.6 °C 30.18in /  1021.9hPa Calm     90% 0.00in /  0mm
00:19 28.1 °F /  -2.2 °C 25.5 °F /  -3.6 °C 30.18in /  1021.9hPa Calm     90% 0.00in /  0mm
00:24 28.2 °F /  -2.1 °C 25.6 °F /  -3.6 °C 30.18in /  1021.9hPa Calm     90% 0.00in /  0mm
00:29 28.3 °F /  -2.1 °C 25.7 °F /  -3.5 °C 30.18in /  1021.9hPa Calm     90% 0.00in /  0mm
00:34 28.4 °F /  -2 °C 25.8 °F /  -3.4 °C 30.18in /  1021.9hPa Calm     90% 0.00in /  0mm
00:39 28.5 °F /  -1.9 °C 25.9 °F /  -3.4 °C 30.18in /  1021.9hPa Calm     90% 0.00in /  0mm
00:44 28.5 °F /  -1.9 °C 25.9 °F /  -3.4 °C 30.18in /  1021.9hPa Calm     90% 0.00in /  0mm
00:49 28.6 °F /  -1.9 °C 26.3 °F /  -3.2 °C 30.18in /  1021.9hPa Calm     91% 0.00in /  0mm
00:54 28.7 °F /  -1.8 °C 26.4 °F /  -3.1 °C 30.18in /  1021.9hPa Calm     91% 0.00in /  0mm
00:59 28.8 °F /  -1.8 °C 26.5 °F /  -3.1 °C 30.18in /  1021.9hPa Calm     91% 0.00in /  0mm
01:04 28.9 °F /  -1.7 °C 26.6 °F /  -3 °C 30.18in /  1021.9hPa Calm     91% 0.00in /  0mm
01:09 29.1 °F /  -1.6 °C 26.8 °F /  -2.9 °C 30.18in /  1021.9hPa Calm     91% 0.00in /  0mm
01:14 29.3 °F /  -1.5 °C 27.0 °F /  -2.8 °C 30.18in /  1021.9hPa Calm     91% 0.00in /  0mm
01:19 29.3 °F /  -1.5 °C 27.0 °F /  -2.8 °C 30.18in /  1021.9hPa Calm     91% 0.00in /  0mm
01:24 29.4 °F /  -1.4 °C 27.1 °F /  -2.7 °C 30.18in /  1021.9hPa Calm     91% 0.00in /  0mm
01:29 29.5 °F /  -1.4 °C 27.2 °F /  -2.7 °C 30.18in /  1021.9hPa Calm     91% 0.00in /  0mm
01:34 29.6 °F /  -1.3 °C 27.3 °F /  -2.6 °C 30.18in /  1021.9hPa Calm     91% 0.00in /  0mm
01:39 29.7 °F /  -1.3 °C 27.4 °F /  -2.6 °C 30.18in /  1021.9hPa Calm     91% 0.00in /  0mm
01:44 29.8 °F /  -1.2 °C 27.5 °F /  -2.5 °C 30.18in /  1021.9hPa Calm     91% 0.00in /  0mm
01:49 29.8 °F /  -1.2 °C 27.5 °F /  -2.5 °C 30.18in /  1021.9hPa Calm     91% 0.00in /  0mm
01:54 29.9 °F /  -1.2 °C 27.6 °F /  -2.4 °C 30.19in /  1022.2hPa Calm     91% 0.00in /  0mm
01:59 29.9 °F /  -1.2 °C 27.6 °F /  -2.4 °C 30.19in /  1022.2hPa NE 1.0mph /  1.6km/h 4.0mph /  6.4km/h 91% 0.00in /  0mm
02:04 29.9 °F /  -1.2 °C 27.6 °F /  -2.4 °C 30.19in /  1022.2hPa NE 1.0mph /  1.6km/h 4.0mph /  6.4km/h 91% 0.00in /  0mm
02:09 29.9 °F /  -1.2 °C 27.6 °F /  -2.4 °C 30.19in /  1022.2hPa NNW 1.0mph /  1.6km/h 3.0mph /  4.8km/h 91% 0.00in /  0mm
02:14 29.9 °F /  -1.2 °C 27.6 °F /  -2.4 °C 30.18in /  1021.9hPa NNW 1.0mph /  1.6km/h 3.0mph /  4.8km/h 91% 0.00in /  0mm
02:19 29.8 °F /  -1.2 °C 27.5 °F /  -2.5 °C 30.19in /  1022.2hPa Calm   3.0mph /  4.8km/h 91% 0.00in /  0mm
02:24 29.8 °F /  -1.2 °C 27.5 °F /  -2.5 °C 30.18in /  1021.9hPa Calm   3.0mph /  4.8km/h 91% 0.00in /  0mm
02:29 29.8 °F /  -1.2 °C 27.5 °F /  -2.5 °C 30.18in /  1021.9hPa NNW 1.0mph /  1.6km/h 3.0mph /  4.8km/h 91% 0.00in /  0mm
02:34 29.8 °F /  -1.2 °C 27.5 °F /  -2.5 °C 30.19in /  1022.2hPa Calm   3.0mph /  4.8km/h 91% 0.00in /  0mm
02:39 29.7 °F /  -1.3 °C 27.4 °F /  -2.6 °C 30.19in /  1022.2hPa Calm     91% 0.00in /  0mm
02:44 29.7 °F /  -1.3 °C 27.4 °F /  -2.6 °C 30.19in /  1022.2hPa Calm     91% 0.00in /  0mm
02:49 29.7 °F /  -1.3 °C 27.4 °F /  -2.6 °C 30.19in /  1022.2hPa Calm     91% 0.00in /  0mm
02:54 29.7 °F /  -1.3 °C 27.4 °F /  -2.6 °C 30.18in /  1021.9hPa Calm     91% 0.00in /  0mm
02:59 29.6 °F /  -1.3 °C 27.3 °F /  -2.6 °C 30.18in /  1021.9hPa Calm     91% 0.00in /  0mm
03:04 29.5 °F /  -1.4 °C 27.2 °F /  -2.7 °C 30.18in /  1021.9hPa NNW 1.0mph /  1.6km/h 4.0mph /  6.4km/h 91% 0.00in /  0mm
03:09 29.5 °F /  -1.4 °C 27.2 °F /  -2.7 °C 30.18in /  1021.9hPa NNW 1.0mph /  1.6km/h 4.0mph /  6.4km/h 91% 0.00in /  0mm
03:14 29.4 °F /  -1.4 °C 27.1 °F /  -2.7 °C 30.18in /  1021.9hPa NNW 2.0mph /  3.2km/h 4.0mph /  6.4km/h 91% 0.00in /  0mm
03:19 29.4 °F /  -1.4 °C 27.1 °F /  -2.7 °C 30.18in /  1021.9hPa Calm   2.0mph /  3.2km/h 91% 0.00in /  0mm
03:24 29.4 °F /  -1.4 °C 27.1 °F /  -2.7 °C 30.18in /  1021.9hPa Calm     91% 0.00in /  0mm
03:29 29.3 °F /  -1.5 °C 27.0 °F /  -2.8 °C 30.18in /  1021.9hPa Calm     91% 0.00in /  0mm
03:34 29.3 °F /  -1.5 °C 27.0 °F /  -2.8 °C 30.18in /  1021.9hPa Calm   1.0mph /  1.6km/h 91% 0.00in /  0mm
03:39 29.2 °F /  -1.6 °C 26.9 °F /  -2.8 °C 30.18in /  1021.9hPa Calm     91% 0.00in /  0mm
03:44 29.1 °F /  -1.6 °C 26.8 °F /  -2.9 °C 30.18in /  1021.9hPa Calm     91% 0.00in /  0mm
03:49 29.0 °F /  -1.7 °C 26.7 °F /  -2.9 °C 30.18in /  1021.9hPa Calm   3.0mph /  4.8km/h 91% 0.00in /  0mm
03:54 28.7 °F /  -1.8 °C 26.4 °F /  -3.1 °C 30.18in /  1021.9hPa NNW 1.0mph /  1.6km/h 3.0mph /  4.8km/h 91% 0.00in /  0mm
03:59 28.4 °F /  -2 °C 26.1 °F /  -3.3 °C 30.17in /  1021.6hPa Calm   3.0mph /  4.8km/h 91% 0.00in /  0mm
04:04 28.1 °F /  -2.2 °C 25.8 °F /  -3.4 °C 30.18in /  1021.9hPa NNW 1.0mph /  1.6km/h 3.0mph /  4.8km/h 91% 0.00in /  0mm
04:09 27.9 °F /  -2.3 °C 25.6 °F /  -3.6 °C 30.18in /  1021.9hPa Calm   2.0mph /  3.2km/h 91% 0.00in /  0mm
04:14 27.7 °F /  -2.4 °C 25.4 °F /  -3.7 °C 30.17in /  1021.6hPa Calm   2.0mph /  3.2km/h 91% 0.00in /  0mm
04:19 27.6 °F /  -2.4 °C 25.3 °F /  -3.7 °C 30.17in /  1021.6hPa Calm     91% 0.00in /  0mm
04:24 27.5 °F /  -2.5 °C 25.2 °F /  -3.8 °C 30.17in /  1021.6hPa Calm     91% 0.00in /  0mm
04:29 27.4 °F /  -2.6 °C 25.1 °F /  -3.8 °C 30.18in /  1021.9hPa Calm     91% 0.00in /  0mm
04:34 27.4 °F /  -2.6 °C 25.1 °F /  -3.8 °C 30.18in /  1021.9hPa Calm     91% 0.00in /  0mm
04:39 27.4 °F /  -2.6 °C 25.1 °F /  -3.8 °C 30.17in /  1021.6hPa Calm     91% 0.00in /  0mm
04:44 27.4 °F /  -2.6 °C 25.1 °F /  -3.8 °C 30.17in /  1021.6hPa Calm     91% 0.00in /  0mm
04:49 27.4 °F /  -2.6 °C 25.1 °F /  -3.8 °C 30.18in /  1021.9hPa Calm     91% 0.00in /  0mm
04:54 27.4 °F /  -2.6 °C 25.1 °F /  -3.8 °C 30.18in /  1021.9hPa Calm     91% 0.00in /  0mm
04:59 27.4 °F /  -2.6 °C 25.1 °F /  -3.8 °C 30.18in /  1021.9hPa Calm     91% 0.00in /  0mm
05:04 27.4 °F /  -2.6 °C 25.1 °F /  -3.8 °C 30.18in /  1021.9hPa Calm     91% 0.00in /  0mm
05:09 27.4 °F /  -2.6 °C 25.1 °F /  -3.8 °C 30.18in /  1021.9hPa Calm     91% 0.00in /  0mm
05:14 27.4 °F /  -2.6 °C 25.1 °F /  -3.8 °C 30.18in /  1021.9hPa Calm     91% 0.00in /  0mm
05:19 27.4 °F /  -2.6 °C 25.1 °F /  -3.8 °C 30.18in /  1021.9hPa Calm     91% 0.00in /  0mm
05:24 27.4 °F /  -2.6 °C 25.1 °F /  -3.8 °C 30.18in /  1021.9hPa Calm     91% 0.00in /  0mm
05:29 27.4 °F /  -2.6 °C 25.1 °F /  -3.8 °C 30.18in /  1021.9hPa Calm     91% 0.00in /  0mm
05:34 27.4 °F /  -2.6 °C 25.1 °F /  -3.8 °C 30.18in /  1021.9hPa Calm     91% 0.00in /  0mm
05:39 27.5 °F /  -2.5 °C 25.2 °F /  -3.8 °C 30.18in /  1021.9hPa Calm     91% 0.00in /  0mm
05:44 27.5 °F /  -2.5 °C 25.2 °F /  -3.8 °C 30.18in /  1021.9hPa Calm     91% 0.00in /  0mm
05:49 27.5 °F /  -2.5 °C 25.2 °F /  -3.8 °C 30.18in /  1021.9hPa Calm     91% 0.00in /  0mm
05:54 27.5 °F /  -2.5 °C 25.2 °F /  -3.8 °C 30.18in /  1021.9hPa Calm     91% 0.00in /  0mm
05:59 27.5 °F /  -2.5 °C 25.2 °F /  -3.8 °C 30.18in /  1021.9hPa Calm     91% 0.00in /  0mm
06:04 27.5 °F /  -2.5 °C 25.2 °F /  -3.8 °C 30.18in /  1021.9hPa Calm     91% 0.00in /  0mm
06:09 27.5 °F /  -2.5 °C 25.2 °F /  -3.8 °C 30.18in /  1021.9hPa Calm     91% 0.00in /  0mm
06:14 27.5 °F /  -2.5 °C 25.2 °F /  -3.8 °C 30.18in /  1021.9hPa Calm     91% 0.00in /  0mm
06:19 27.4 °F /  -2.6 °C 25.1 °F /  -3.8 °C 30.18in /  1021.9hPa Calm     91% 0.00in /  0mm
06:24 27.5 °F /  -2.5 °C 25.2 °F /  -3.8 °C 30.18in /  1021.9hPa Calm     91% 0.00in /  0mm
06:29 27.5 °F /  -2.5 °C 25.2 °F /  -3.8 °C 30.18in /  1021.9hPa Calm     91% 0.00in /  0mm
06:34 27.4 °F /  -2.6 °C 25.1 °F /  -3.8 °C 30.17in /  1021.6hPa Calm     91% 0.00in /  0mm
06:39 27.5 °F /  -2.5 °C 25.2 °F /  -3.8 °C 30.18in /  1021.9hPa Calm     91% 0.00in /  0mm
06:44 27.5 °F /  -2.5 °C 25.2 °F /  -3.8 °C 30.17in /  1021.6hPa Calm     91% 0.00in /  0mm
06:49 27.4 °F /  -2.6 °C 25.1 °F /  -3.8 °C 30.17in /  1021.6hPa Calm     91% 0.00in /  0mm
06:54 27.5 °F /  -2.5 °C 25.2 °F /  -3.8 °C 30.17in /  1021.6hPa Calm     91% 0.00in /  0mm
06:59 27.5 °F /  -2.5 °C 25.2 °F /  -3.8 °C 30.18in /  1021.9hPa Calm     91% 0.00in /  0mm
07:04 27.5 °F /  -2.5 °C 25.2 °F /  -3.8 °C 30.18in /  1021.9hPa Calm     91% 0.00in /  0mm
07:09 27.5 °F /  -2.5 °C 25.2 °F /  -3.8 °C 30.17in /  1021.6hPa Calm     91% 0.00in /  0mm
07:14 27.5 °F /  -2.5 °C 25.2 °F /  -3.8 °C 30.18in /  1021.9hPa Calm     91% 0.00in /  0mm
07:19 27.5 °F /  -2.5 °C 25.2 °F /  -3.8 °C 30.17in /  1021.6hPa Calm     91% 0.00in /  0mm
07:24 27.5 °F /  -2.5 °C 25.2 °F /  -3.8 °C 30.17in /  1021.6hPa Calm     91% 0.00in /  0mm
07:29 27.6 °F /  -2.4 °C 25.3 °F /  -3.7 °C 30.18in /  1021.9hPa Calm     91% 0.00in /  0mm
07:34 27.6 °F /  -2.4 °C 25.3 °F /  -3.7 °C 30.18in /  1021.9hPa Calm     91% 0.00in /  0mm
07:39 27.7 °F /  -2.4 °C 25.4 °F /  -3.7 °C 30.18in /  1021.9hPa Calm     91% 0.00in /  0mm
07:44 27.7 °F /  -2.4 °C 25.4 °F /  -3.7 °C 30.18in /  1021.9hPa Calm     91% 0.00in /  0mm
07:49 27.7 °F /  -2.4 °C 25.4 °F /  -3.7 °C 30.19in /  1022.2hPa Calm     91% 0.00in /  0mm
07:54 27.8 °F /  -2.3 °C 25.5 °F /  -3.6 °C 30.19in /  1022.2hPa Calm     91% 0.00in /  0mm
07:59 27.9 °F /  -2.3 °C 25.6 °F /  -3.6 °C 30.19in /  1022.2hPa Calm     91% 0.00in /  0mm
08:04 27.9 °F /  -2.3 °C 25.6 °F /  -3.6 °C 30.19in /  1022.2hPa Calm     91% 0.00in /  0mm
08:09 27.9 °F /  -2.3 °C 25.6 °F /  -3.6 °C 30.19in /  1022.2hPa Calm     91% 0.00in /  0mm
08:14 28.0 °F /  -2.2 °C 25.7 °F /  -3.5 °C 30.19in /  1022.2hPa Calm     91% 0.00in /  0mm
08:19 28.0 °F /  -2.2 °C 25.7 °F /  -3.5 °C 30.19in /  1022.2hPa Calm     91% 0.00in /  0mm
08:24 28.0 °F /  -2.2 °C 25.7 °F /  -3.5 °C 30.19in /  1022.2hPa Calm     91% 0.00in /  0mm
08:29 28.1 °F /  -2.2 °C 25.8 °F /  -3.4 °C 30.19in /  1022.2hPa Calm     91% 0.00in /  0mm
08:34 28.1 °F /  -2.2 °C 25.8 °F /  -3.4 °C 30.19in /  1022.2hPa Calm   2.0mph /  3.2km/h 91% 0.00in /  0mm
08:39 28.1 °F /  -2.2 °C 25.8 °F /  -3.4 °C 30.19in /  1022.2hPa Calm   2.0mph /  3.2km/h 91% 0.00in /  0mm
08:44 28.1 °F /  -2.2 °C 25.8 °F /  -3.4 °C 30.19in /  1022.2hPa Calm     91% 0.00in /  0mm
08:49 28.2 °F /  -2.1 °C 25.9 °F /  -3.4 °C 30.18in /  1021.9hPa Calm     91% 0.00in /  0mm
08:54 28.3 °F /  -2.1 °C 26.0 °F /  -3.3 °C 30.18in /  1021.9hPa Calm     91% 0.00in /  0mm
08:59 28.4 °F /  -2 °C 26.1 °F /  -3.3 °C 30.18in /  1021.9hPa Calm     91% 0.00in /  0mm
09:04 28.5 °F /  -1.9 °C 26.2 °F /  -3.2 °C 30.18in /  1021.9hPa Calm     91% 0.00in /  0mm
09:09 28.6 °F /  -1.9 °C 26.3 °F /  -3.2 °C 30.18in /  1021.9hPa Calm     91% 0.00in /  0mm
09:14 28.7 °F /  -1.8 °C 26.4 °F /  -3.1 °C 30.18in /  1021.9hPa Calm     91% 0.00in /  0mm
09:19 28.7 °F /  -1.8 °C 26.4 °F /  -3.1 °C 30.18in /  1021.9hPa Calm     91% 0.00in /  0mm
09:24 28.8 °F /  -1.8 °C 26.5 °F /  -3.1 °C 30.17in /  1021.6hPa Calm     91% 0.00in /  0mm
09:29 29.0 °F /  -1.7 °C 26.7 °F /  -2.9 °C 30.17in /  1021.6hPa Calm     91% 0.00in /  0mm
09:34 29.1 °F /  -1.6 °C 26.8 °F /  -2.9 °C 30.17in /  1021.6hPa Calm     91% 0.00in /  0mm
09:39 29.2 °F /  -1.6 °C 26.6 °F /  -3 °C 30.17in /  1021.6hPa Calm     90% 0.00in /  0mm
09:44 29.4 °F /  -1.4 °C 26.8 °F /  -2.9 °C 30.17in /  1021.6hPa Calm     90% 0.00in /  0mm
09:49 29.4 °F /  -1.4 °C 26.8 °F /  -2.9 °C 30.17in /  1021.6hPa Calm     90% 0.00in /  0mm
09:54 29.5 °F /  -1.4 °C 26.9 °F /  -2.8 °C 30.17in /  1021.6hPa Calm     90% 0.00in /  0mm
09:59 29.6 °F /  -1.3 °C 27.0 °F /  -2.8 °C 30.17in /  1021.6hPa Calm     90% 0.00in /  0mm
10:04 29.7 °F /  -1.3 °C 27.1 °F /  -2.7 °C 30.17in /  1021.6hPa Calm     90% 0.00in /  0mm
10:09 29.8 °F /  -1.2 °C 27.2 °F /  -2.7 °C 30.16in /  1021.2hPa Calm     90% 0.00in /  0mm
10:14 30.0 °F /  -1.1 °C 27.2 °F /  -2.7 °C 30.16in /  1021.2hPa Calm   3.0mph /  4.8km/h 89% 0.00in /  0mm
10:19 30.2 °F /  -1 °C 27.3 °F /  -2.6 °C 30.15in /  1020.9hPa NNW 2.0mph /  3.2km/h 3.0mph /  4.8km/h 89% 0.00in /  0mm
10:24 30.4 °F /  -0.9 °C 27.5 °F /  -2.5 °C 30.15in /  1020.9hPa NNW 1.0mph /  1.6km/h 4.0mph /  6.4km/h 89% 0.00in /  0mm
10:29 30.6 °F /  -0.8 °C 27.7 °F /  -2.4 °C 30.15in /  1020.9hPa Calm   3.0mph /  4.8km/h 89% 0.00in /  0mm
10:34 30.8 °F /  -0.7 °C 27.7 °F /  -2.4 °C 30.16in /  1021.2hPa NNW 1.0mph /  1.6km/h 3.0mph /  4.8km/h 88% 0.00in /  0mm
10:39 30.6 °F /  -0.8 °C 27.5 °F /  -2.5 °C 30.16in /  1021.2hPa NNW 1.0mph /  1.6km/h 5.0mph /  8km/h 88% 0.00in /  0mm
10:44 30.6 °F /  -0.8 °C 27.5 °F /  -2.5 °C 30.16in /  1021.2hPa North 2.0mph /  3.2km/h 5.0mph /  8km/h 88% 0.00in /  0mm
10:49 30.5 °F /  -0.8 °C 27.1 °F /  -2.7 °C 30.16in /  1021.2hPa North 2.0mph /  3.2km/h 4.0mph /  6.4km/h 87% 0.00in /  0mm
10:54 30.6 °F /  -0.8 °C 27.2 °F /  -2.7 °C 30.16in /  1021.2hPa North 2.0mph /  3.2km/h 4.0mph /  6.4km/h 87% 0.00in /  0mm
10:59 30.6 °F /  -0.8 °C 27.2 °F /  -2.7 °C 30.16in /  1021.2hPa North 1.0mph /  1.6km/h 3.0mph /  4.8km/h 87% 0.00in /  0mm
11:04 30.6 °F /  -0.8 °C 27.2 °F /  -2.7 °C 30.16in /  1021.2hPa North 2.0mph /  3.2km/h 3.0mph /  4.8km/h 87% 0.00in /  0mm
11:09 30.8 °F /  -0.7 °C 27.4 °F /  -2.6 °C 30.16in /  1021.2hPa North 2.0mph /  3.2km/h 3.0mph /  4.8km/h 87% 0.00in /  0mm
11:14 31.0 °F /  -0.6 °C 27.6 °F /  -2.4 °C 30.15in /  1020.9hPa North 2.0mph /  3.2km/h 3.0mph /  4.8km/h 87% 0.00in /  0mm
11:19 31.2 °F /  -0.4 °C 27.8 °F /  -2.3 °C 30.15in /  1020.9hPa North 3.0mph /  4.8km/h 3.0mph /  4.8km/h 87% 0.00in /  0mm
11:24 31.3 °F /  -0.4 °C 27.6 °F /  -2.4 °C 30.15in /  1020.9hPa North 3.0mph /  4.8km/h 3.0mph /  4.8km/h 86% 0.00in /  0mm
11:29 31.2 °F /  -0.4 °C 27.5 °F /  -2.5 °C 30.15in /  1020.9hPa North 2.0mph /  3.2km/h 5.0mph /  8km/h 86% 0.00in /  0mm
11:34 31.3 °F /  -0.4 °C 27.6 °F /  -2.4 °C 30.15in /  1020.9hPa North 3.0mph /  4.8km/h 4.0mph /  6.4km/h 86% 0.00in /  0mm
11:39 31.4 °F /  -0.3 °C 27.7 °F /  -2.4 °C 30.15in /  1020.9hPa North 2.0mph /  3.2km/h 5.0mph /  8km/h 86% 0.00in /  0mm
11:44 31.5 °F /  -0.3 °C 27.5 °F /  -2.5 °C 30.14in /  1020.5hPa North 2.0mph /  3.2km/h 5.0mph /  8km/h 85% 0.00in /  0mm
11:49 31.5 °F /  -0.3 °C 27.5 °F /  -2.5 °C 30.14in /  1020.5hPa North 3.0mph /  4.8km/h 5.0mph /  8km/h 85% 0.00in /  0mm
11:54 31.5 °F /  -0.3 °C 27.5 °F /  -2.5 °C 30.13in /  1020.2hPa NNE 2.0mph /  3.2km/h 4.0mph /  6.4km/h 85% 0.00in /  0mm
11:59 31.6 °F /  -0.2 °C 27.6 °F /  -2.4 °C 30.13in /  1020.2hPa NNE 1.0mph /  1.6km/h 2.0mph /  3.2km/h 85% 0.00in /  0mm
12:04 31.6 °F /  -0.2 °C 27.6 °F /  -2.4 °C 30.12in /  1019.9hPa NNE 1.0mph /  1.6km/h 4.0mph /  6.4km/h 85% 0.00in /  0mm
12:09 31.7 °F /  -0.2 °C 27.7 °F /  -2.4 °C 30.12in /  1019.9hPa NNE 2.0mph /  3.2km/h 4.0mph /  6.4km/h 85% 0.00in /  0mm
12:14 31.7 °F /  -0.2 °C 28.0 °F /  -2.2 °C 30.12in /  1019.9hPa NNE 1.0mph /  1.6km/h 3.0mph /  4.8km/h 86% 0.00in /  0mm
12:19 31.6 °F /  -0.2 °C 27.6 °F /  -2.4 °C 30.12in /  1019.9hPa NNE 2.0mph /  3.2km/h 4.0mph /  6.4km/h 85% 0.00in /  0mm
12:24 31.7 °F /  -0.2 °C 27.7 °F /  -2.4 °C 30.12in /  1019.9hPa NNE 2.0mph /  3.2km/h 4.0mph /  6.4km/h 85% 0.00in /  0mm
12:29 31.5 °F /  -0.3 °C 27.5 °F /  -2.5 °C 30.12in /  1019.9hPa NNE 1.0mph /  1.6km/h 4.0mph /  6.4km/h 85% 0.00in /  0mm
12:34 31.4 °F /  -0.3 °C 27.4 °F /  -2.6 °C 30.12in /  1019.9hPa Calm   3.0mph /  4.8km/h 85% 0.00in /  0mm
12:39 31.2 °F /  -0.4 °C 27.5 °F /  -2.5 °C 30.11in /  1019.5hPa NNE 2.0mph /  3.2km/h 4.0mph /  6.4km/h 86% 0.00in /  0mm
12:44 31.0 °F /  -0.6 °C 27.3 °F /  -2.6 °C 30.12in /  1019.9hPa NNE 2.0mph /  3.2km/h 4.0mph /  6.4km/h 86% 0.00in /  0mm
12:49 31.1 °F /  -0.5 °C 27.4 °F /  -2.6 °C 30.11in /  1019.5hPa NNE 2.0mph /  3.2km/h 4.0mph /  6.4km/h 86% 0.00in /  0mm
12:54 31.1 °F /  -0.5 °C 27.4 °F /  -2.6 °C 30.11in /  1019.5hPa Calm   4.0mph /  6.4km/h 86% 0.00in /  0mm
12:59 31.0 °F /  -0.6 °C 27.3 °F /  -2.6 °C 30.12in /  1019.9hPa North 3.0mph /  4.8km/h 4.0mph /  6.4km/h 86% 0.00in /  0mm
13:04 30.9 °F /  -0.6 °C 27.2 °F /  -2.7 °C 30.11in /  1019.5hPa North 1.0mph /  1.6km/h 3.0mph /  4.8km/h 86% 0.00in /  0mm
13:09 30.9 °F /  -0.6 °C 27.2 °F /  -2.7 °C 30.11in /  1019.5hPa NNE 2.0mph /  3.2km/h 4.0mph /  6.4km/h 86% 0.00in /  0mm
13:14 30.7 °F /  -0.7 °C 27.0 °F /  -2.8 °C 30.10in /  1019.2hPa NNE 3.0mph /  4.8km/h 5.0mph /  8km/h 86% 0.00in /  0mm
13:19 30.6 °F /  -0.8 °C 27.2 °F /  -2.7 °C 30.10in /  1019.2hPa NNE 2.0mph /  3.2km/h 5.0mph /  8km/h 87% 0.00in /  0mm
13:24 30.7 °F /  -0.7 °C 27.3 °F /  -2.6 °C 30.10in /  1019.2hPa NNE 2.0mph /  3.2km/h 4.0mph /  6.4km/h 87% 0.00in /  0mm
13:29 30.6 °F /  -0.8 °C 27.2 °F /  -2.7 °C 30.10in /  1019.2hPa NNE 2.0mph /  3.2km/h 4.0mph /  6.4km/h 87% 0.00in /  0mm
13:34 30.5 °F /  -0.8 °C 27.1 °F /  -2.7 °C 30.10in /  1019.2hPa NNE 2.0mph /  3.2km/h 4.0mph /  6.4km/h 87% 0.00in /  0mm
13:39 30.6 °F /  -0.8 °C 27.2 °F /  -2.7 °C 30.10in /  1019.2hPa NNE 2.0mph /  3.2km/h 4.0mph /  6.4km/h 87% 0.00in /  0mm
13:44 30.6 °F /  -0.8 °C 27.2 °F /  -2.7 °C 30.10in /  1019.2hPa NNE 2.0mph /  3.2km/h 4.0mph /  6.4km/h 87% 0.00in /  0mm
13:49 30.6 °F /  -0.8 °C 27.2 °F /  -2.7 °C 30.09in /  1018.8hPa NNE 3.0mph /  4.8km/h 3.0mph /  4.8km/h 87% 0.00in /  0mm
13:54 30.6 °F /  -0.8 °C 27.2 °F /  -2.7 °C 30.09in /  1018.8hPa NNE 3.0mph /  4.8km/h 4.0mph /  6.4km/h 87% 0.00in /  0mm
13:59 30.7 °F /  -0.7 °C 27.3 °F /  -2.6 °C 30.09in /  1018.8hPa NNE 2.0mph /  3.2km/h 3.0mph /  4.8km/h 87% 0.00in /  0mm
14:04 30.8 °F /  -0.7 °C 27.4 °F /  -2.6 °C 30.09in /  1018.8hPa NNE 4.0mph /  6.4km/h 5.0mph /  8km/h 87% 0.00in /  0mm
14:09 30.7 °F /  -0.7 °C 27.3 °F /  -2.6 °C 30.09in /  1018.8hPa NNE 1.0mph /  1.6km/h 5.0mph /  8km/h 87% 0.00in /  0mm
14:14 30.7 °F /  -0.7 °C 27.3 °F /  -2.6 °C 30.09in /  1018.8hPa North 2.0mph /  3.2km/h 5.0mph /  8km/h 87% 0.00in /  0mm
14:19 30.6 °F /  -0.8 °C 27.2 °F /  -2.7 °C 30.08in /  1018.5hPa North 2.0mph /  3.2km/h 5.0mph /  8km/h 87% 0.00in /  0mm
14:24 30.6 °F /  -0.8 °C 27.2 °F /  -2.7 °C 30.08in /  1018.5hPa North 2.0mph /  3.2km/h 5.0mph /  8km/h 87% 0.00in /  0mm
14:29 30.6 °F /  -0.8 °C 27.2 °F /  -2.7 °C 30.07in /  1018.2hPa North 3.0mph /  4.8km/h 6.0mph /  9.7km/h 87% 0.00in /  0mm
14:34 30.7 °F /  -0.7 °C 27.3 °F /  -2.6 °C 30.08in /  1018.5hPa NNE 3.0mph /  4.8km/h 6.0mph /  9.7km/h 87% 0.00in /  0mm
14:39 30.9 °F /  -0.6 °C 27.5 °F /  -2.5 °C 30.08in /  1018.5hPa NNE 2.0mph /  3.2km/h 4.0mph /  6.4km/h 87% 0.00in /  0mm
14:44 30.9 °F /  -0.6 °C 27.5 °F /  -2.5 °C 30.08in /  1018.5hPa NNE 2.0mph /  3.2km/h 6.0mph /  9.7km/h 87% 0.00in /  0mm
14:49 30.7 °F /  -0.7 °C 27.3 °F /  -2.6 °C 30.09in /  1018.8hPa NNE 3.0mph /  4.8km/h 7.0mph /  11.3km/h 87% 0.00in /  0mm
14:54 30.6 °F /  -0.8 °C 27.2 °F /  -2.7 °C 30.09in /  1018.8hPa NNE 4.0mph /  6.4km/h 4.0mph /  6.4km/h 87% 0.00in /  0mm
14:59 30.5 °F /  -0.8 °C 27.1 °F /  -2.7 °C 30.09in /  1018.8hPa NNE 4.0mph /  6.4km/h 5.0mph /  8km/h 87% 0.00in /  0mm
15:04 30.4 °F /  -0.9 °C 27.0 °F /  -2.8 °C 30.10in /  1019.2hPa NNE 3.0mph /  4.8km/h 5.0mph /  8km/h 87% 0.00in /  0mm
15:09 30.4 °F /  -0.9 °C 27.0 °F /  -2.8 °C 30.09in /  1018.8hPa ENE 2.0mph /  3.2km/h 7.0mph /  11.3km/h 87% 0.00in /  0mm
15:14 30.5 °F /  -0.8 °C 27.1 °F /  -2.7 °C 30.09in /  1018.8hPa NNE 2.0mph /  3.2km/h 5.0mph /  8km/h 87% 0.00in /  0mm
15:19 30.4 °F /  -0.9 °C 27.0 °F /  -2.8 °C 30.09in /  1018.8hPa NNE 2.0mph /  3.2km/h 5.0mph /  8km/h 87% 0.00in /  0mm
15:24 30.3 °F /  -0.9 °C 26.9 °F /  -2.8 °C 30.09in /  1018.8hPa NNE 3.0mph /  4.8km/h 5.0mph /  8km/h 87% 0.00in /  0mm
15:29 30.1 °F /  -1.1 °C 26.7 °F /  -2.9 °C 30.09in /  1018.8hPa NNE 3.0mph /  4.8km/h 6.0mph /  9.7km/h 87% 0.00in /  0mm
15:34 30.1 °F /  -1.1 °C 26.7 °F /  -2.9 °C 30.10in /  1019.2hPa NE 2.0mph /  3.2km/h 6.0mph /  9.7km/h 87% 0.00in /  0mm
15:39 30.0 °F /  -1.1 °C 26.3 °F /  -3.2 °C 30.10in /  1019.2hPa NE 3.0mph /  4.8km/h 6.0mph /  9.7km/h 86% 0.00in /  0mm
15:44 29.8 °F /  -1.2 °C 26.1 °F /  -3.3 °C 30.10in /  1019.2hPa NE 3.0mph /  4.8km/h 6.0mph /  9.7km/h 86% 0.00in /  0mm
15:54 29.5 °F /  -1.4 °C 25.8 °F /  -3.4 °C 30.10in /  1019.2hPa NE 4.0mph /  6.4km/h 8.0mph /  12.9km/h 86% 0.00in /  0mm
15:59 29.4 °F /  -1.4 °C 25.7 °F /  -3.5 °C 30.10in /  1019.2hPa NE 3.0mph /  4.8km/h 8.0mph /  12.9km/h 86% 0.00in /  0mm
16:04 29.3 °F /  -1.5 °C 25.9 °F /  -3.4 °C 30.10in /  1019.2hPa NE 2.0mph /  3.2km/h 5.0mph /  8km/h 87% 0.00in /  0mm
16:09 29.2 °F /  -1.6 °C 25.8 °F /  -3.4 °C 30.11in /  1019.5hPa NE 3.0mph /  4.8km/h 5.0mph /  8km/h 87% 0.00in /  0mm
16:14 29.2 °F /  -1.6 °C 25.8 °F /  -3.4 °C 30.11in /  1019.5hPa NE 3.0mph /  4.8km/h 8.0mph /  12.9km/h 87% 0.00in /  0mm
16:19 29.1 °F /  -1.6 °C 25.7 °F /  -3.5 °C 30.11in /  1019.5hPa NE 2.0mph /  3.2km/h 5.0mph /  8km/h 87% 0.00in /  0mm
16:24 29.0 °F /  -1.7 °C 25.6 °F /  -3.6 °C 30.10in /  1019.2hPa NE 4.0mph /  6.4km/h 5.0mph /  8km/h 87% 0.00in /  0mm
16:34 28.7 °F /  -1.8 °C 25.3 °F /  -3.7 °C 30.10in /  1019.2hPa NE 3.0mph /  4.8km/h 7.0mph /  11.3km/h 87% 0.00in /  0mm
16:39 28.5 °F /  -1.9 °C 25.1 °F /  -3.8 °C 30.10in /  1019.2hPa NNE 4.0mph /  6.4km/h 7.0mph /  11.3km/h 87% 0.00in /  0mm
16:44 28.4 °F /  -2 °C 25.0 °F /  -3.9 °C 30.10in /  1019.2hPa NE 4.0mph /  6.4km/h 7.0mph /  11.3km/h 87% 0.00in /  0mm
16:49 28.4 °F /  -2 °C 25.3 °F /  -3.7 °C 30.10in /  1019.2hPa NE 3.0mph /  4.8km/h 8.0mph /  12.9km/h 88% 0.00in /  0mm
16:54 28.3 °F /  -2.1 °C 25.2 °F /  -3.8 °C 30.10in /  1019.2hPa NE 3.0mph /  4.8km/h 7.0mph /  11.3km/h 88% 0.00in /  0mm
16:59 28.3 °F /  -2.1 °C 24.9 °F /  -3.9 °C 30.10in /  1019.2hPa NE 4.0mph /  6.4km/h 10.0mph /  16.1km/h 87% 0.00in /  0mm
17:04 28.1 °F /  -2.2 °C 25.0 °F /  -3.9 °C 30.10in /  1019.2hPa NNE 3.0mph /  4.8km/h 7.0mph /  11.3km/h 88% 0.00in /  0mm
17:09 28.0 °F /  -2.2 °C 24.9 °F /  -3.9 °C 30.10in /  1019.2hPa ENE 10.0mph /  16.1km/h 10.0mph /  16.1km/h 88% 0.00in /  0mm
17:14 27.9 °F /  -2.3 °C 24.8 °F /  -4 °C 30.11in /  1019.5hPa NNE 3.0mph /  4.8km/h 10.0mph /  16.1km/h 88% 0.00in /  0mm
17:19 27.9 °F /  -2.3 °C 24.8 °F /  -4 °C 30.12in /  1019.9hPa NE 4.0mph /  6.4km/h 7.0mph /  11.3km/h 88% 0.00in /  0mm
17:24 27.8 °F /  -2.3 °C 24.7 °F /  -4.1 °C 30.12in /  1019.9hPa ENE 3.0mph /  4.8km/h 9.0mph /  14.5km/h 88% 0.00in /  0mm
17:29 27.7 °F /  -2.4 °C 24.6 °F /  -4.1 °C 30.12in /  1019.9hPa ENE 4.0mph /  6.4km/h 8.0mph /  12.9km/h 88% 0.00in /  0mm
17:34 27.6 °F /  -2.4 °C 24.5 °F /  -4.2 °C 30.12in /  1019.9hPa NE 4.0mph /  6.4km/h 8.0mph /  12.9km/h 88% 0.00in /  0mm
17:39 27.6 °F /  -2.4 °C 24.5 °F /  -4.2 °C 30.12in /  1019.9hPa NE 4.0mph /  6.4km/h 8.0mph /  12.9km/h 88% 0.00in /  0mm
17:44 27.5 °F /  -2.5 °C 24.4 °F /  -4.2 °C 30.12in /  1019.9hPa NE 4.0mph /  6.4km/h 8.0mph /  12.9km/h 88% 0.00in /  0mm
17:49 27.4 °F /  -2.6 °C 24.3 °F /  -4.3 °C 30.12in /  1019.9hPa NE 4.0mph /  6.4km/h 8.0mph /  12.9km/h 88% 0.00in /  0mm
17:54 27.4 °F /  -2.6 °C 24.3 °F /  -4.3 °C 30.13in /  1020.2hPa NE 4.0mph /  6.4km/h 8.0mph /  12.9km/h 88% 0.00in /  0mm
17:59 27.4 °F /  -2.6 °C 24.3 °F /  -4.3 °C 30.13in /  1020.2hPa NE 5.0mph /  8km/h 7.0mph /  11.3km/h 88% 0.00in /  0mm
18:04 27.3 °F /  -2.6 °C 24.2 °F /  -4.3 °C 30.14in /  1020.5hPa NE 4.0mph /  6.4km/h 9.0mph /  14.5km/h 88% 0.00in /  0mm
18:09 27.2 °F /  -2.7 °C 24.1 °F /  -4.4 °C 30.14in /  1020.5hPa NE 5.0mph /  8km/h 13.0mph /  20.9km/h 88% 0.00in /  0mm
18:14 27.2 °F /  -2.7 °C 24.1 °F /  -4.4 °C 30.14in /  1020.5hPa NE 6.0mph /  9.7km/h 10.0mph /  16.1km/h 88% 0.00in /  0mm
18:19 27.1 °F /  -2.7 °C 24.0 °F /  -4.4 °C 30.14in /  1020.5hPa NE 6.0mph /  9.7km/h 8.0mph /  12.9km/h 88% 0.00in /  0mm
18:24 27.1 °F /  -2.7 °C 24.0 °F /  -4.4 °C 30.14in /  1020.5hPa NE 5.0mph /  8km/h 6.0mph /  9.7km/h 88% 0.00in /  0mm
18:29 27.0 °F /  -2.8 °C 23.9 °F /  -4.5 °C 30.15in /  1020.9hPa NE 5.0mph /  8km/h 10.0mph /  16.1km/h 88% 0.00in /  0mm
18:34 27.0 °F /  -2.8 °C 23.9 °F /  -4.5 °C 30.15in /  1020.9hPa NE 3.0mph /  4.8km/h 10.0mph /  16.1km/h 88% 0.00in /  0mm
18:39 27.0 °F /  -2.8 °C 23.9 °F /  -4.5 °C 30.14in /  1020.5hPa NE 5.0mph /  8km/h 10.0mph /  16.1km/h 88% 0.00in /  0mm
18:44 26.9 °F /  -2.8 °C 24.1 °F /  -4.4 °C 30.14in /  1020.5hPa NE 4.0mph /  6.4km/h 9.0mph /  14.5km/h 89% 0.00in /  0mm
18:49 27.0 °F /  -2.8 °C 24.2 °F /  -4.3 °C 30.14in /  1020.5hPa NE 4.0mph /  6.4km/h 8.0mph /  12.9km/h 89% 0.00in /  0mm
18:54 27.0 °F /  -2.8 °C 24.2 °F /  -4.3 °C 30.15in /  1020.9hPa NE 4.0mph /  6.4km/h 10.0mph /  16.1km/h 89% 0.00in /  0mm
18:59 27.0 °F /  -2.8 °C 24.2 °F /  -4.3 °C 30.15in /  1020.9hPa NE 3.0mph /  4.8km/h 8.0mph /  12.9km/h 89% 0.00in /  0mm
19:04 27.0 °F /  -2.8 °C 24.2 °F /  -4.3 °C 30.15in /  1020.9hPa NE 3.0mph /  4.8km/h 9.0mph /  14.5km/h 89% 0.00in /  0mm
19:09 26.9 °F /  -2.8 °C 24.1 °F /  -4.4 °C 30.16in /  1021.2hPa NE 3.0mph /  4.8km/h 9.0mph /  14.5km/h 89% 0.00in /  0mm
19:14 26.9 °F /  -2.8 °C 24.1 °F /  -4.4 °C 30.15in /  1020.9hPa NE 3.0mph /  4.8km/h 6.0mph /  9.7km/h 89% 0.00in /  0mm
19:19 26.9 °F /  -2.8 °C 24.1 °F /  -4.4 °C 30.15in /  1020.9hPa NE 3.0mph /  4.8km/h 6.0mph /  9.7km/h 89% 0.00in /  0mm
19:24 26.9 °F /  -2.8 °C 24.1 °F /  -4.4 °C 30.15in /  1020.9hPa NE 2.0mph /  3.2km/h 5.0mph /  8km/h 89% 0.00in /  0mm
19:29 26.9 °F /  -2.8 °C 24.1 °F /  -4.4 °C 30.15in /  1020.9hPa NE 3.0mph /  4.8km/h 5.0mph /  8km/h 89% 0.00in /  0mm
19:34 26.9 °F /  -2.8 °C 24.1 °F /  -4.4 °C 30.15in /  1020.9hPa NE 3.0mph /  4.8km/h 5.0mph /  8km/h 89% 0.00in /  0mm
19:39 26.8 °F /  -2.9 °C 24.0 °F /  -4.4 °C 30.15in /  1020.9hPa NE 3.0mph /  4.8km/h 8.0mph /  12.9km/h 89% 0.00in /  0mm
19:44 26.8 °F /  -2.9 °C 24.0 °F /  -4.4 °C 30.15in /  1020.9hPa NE 4.0mph /  6.4km/h 8.0mph /  12.9km/h 89% 0.00in /  0mm
19:49 26.9 °F /  -2.8 °C 24.1 °F /  -4.4 °C 30.15in /  1020.9hPa NE 4.0mph /  6.4km/h 8.0mph /  12.9km/h 89% 0.00in /  0mm
19:54 26.8 °F /  -2.9 °C 24.0 °F /  -4.4 °C 30.15in /  1020.9hPa NE 4.0mph /  6.4km/h 8.0mph /  12.9km/h 89% 0.00in /  0mm
19:59 26.9 °F /  -2.8 °C 24.1 °F /  -4.4 °C 30.15in /  1020.9hPa NE 3.0mph /  4.8km/h 5.0mph /  8km/h 89% 0.00in /  0mm
20:04 26.9 °F /  -2.8 °C 24.1 °F /  -4.4 °C 30.15in /  1020.9hPa NE 3.0mph /  4.8km/h 9.0mph /  14.5km/h 89% 0.00in /  0mm
20:09 26.8 °F /  -2.9 °C 24.0 °F /  -4.4 °C 30.15in /  1020.9hPa NE 3.0mph /  4.8km/h 9.0mph /  14.5km/h 89% 0.00in /  0mm
20:14 26.8 °F /  -2.9 °C 24.0 °F /  -4.4 °C 30.15in /  1020.9hPa NE 3.0mph /  4.8km/h 9.0mph /  14.5km/h 89% 0.00in /  0mm
20:19 26.8 °F /  -2.9 °C 24.0 °F /  -4.4 °C 30.15in /  1020.9hPa NE 4.0mph /  6.4km/h 9.0mph /  14.5km/h 89% 0.00in /  0mm
20:24 26.8 °F /  -2.9 °C 24.0 °F /  -4.4 °C 30.15in /  1020.9hPa NE 3.0mph /  4.8km/h 7.0mph /  11.3km/h 89% 0.00in /  0mm
20:29 26.7 °F /  -2.9 °C 23.9 °F /  -4.5 °C 30.14in /  1020.5hPa NE 4.0mph /  6.4km/h 6.0mph /  9.7km/h 89% 0.00in /  0mm
20:34 26.7 °F /  -2.9 °C 23.9 °F /  -4.5 °C 30.14in /  1020.5hPa NE 2.0mph /  3.2km/h 7.0mph /  11.3km/h 89% 0.00in /  0mm
20:39 26.7 °F /  -2.9 °C 23.9 °F /  -4.5 °C 30.14in /  1020.5hPa NE 3.0mph /  4.8km/h 6.0mph /  9.7km/h 89% 0.00in /  0mm
20:44 26.7 °F /  -2.9 °C 23.9 °F /  -4.5 °C 30.14in /  1020.5hPa NE 3.0mph /  4.8km/h 7.0mph /  11.3km/h 89% 0.00in /  0mm
20:49 26.7 °F /  -2.9 °C 23.9 °F /  -4.5 °C 30.13in /  1020.2hPa ENE 5.0mph /  8km/h 8.0mph /  12.9km/h 89% 0.00in /  0mm
20:54 26.6 °F /  -3 °C 23.8 °F /  -4.6 °C 30.13in /  1020.2hPa NE 4.0mph /  6.4km/h 8.0mph /  12.9km/h 89% 0.00in /  0mm
20:59 26.6 °F /  -3 °C 23.8 °F /  -4.6 °C 30.14in /  1020.5hPa NE 3.0mph /  4.8km/h 8.0mph /  12.9km/h 89% 0.00in /  0mm
21:04 26.6 °F /  -3 °C 23.8 °F /  -4.6 °C 30.14in /  1020.5hPa NE 4.0mph /  6.4km/h 9.0mph /  14.5km/h 89% 0.00in /  0mm
21:09 26.6 °F /  -3 °C 23.8 °F /  -4.6 °C 30.15in /  1020.9hPa NE 5.0mph /  8km/h 7.0mph /  11.3km/h 89% 0.00in /  0mm
21:14 26.5 °F /  -3.1 °C 23.7 °F /  -4.6 °C 30.15in /  1020.9hPa NNE 2.0mph /  3.2km/h 6.0mph /  9.7km/h 89% 0.00in /  0mm
21:19 26.5 °F /  -3.1 °C 23.7 °F /  -4.6 °C 30.15in /  1020.9hPa NE 3.0mph /  4.8km/h 8.0mph /  12.9km/h 89% 0.00in /  0mm
21:24 26.5 °F /  -3.1 °C 23.7 °F /  -4.6 °C 30.15in /  1020.9hPa NE 4.0mph /  6.4km/h 8.0mph /  12.9km/h 89% 0.00in /  0mm
21:29 26.5 °F /  -3.1 °C 23.7 °F /  -4.6 °C 30.15in /  1020.9hPa NE 4.0mph /  6.4km/h 9.0mph /  14.5km/h 89% 0.00in /  0mm
21:34 26.5 °F /  -3.1 °C 23.7 °F /  -4.6 °C 30.14in /  1020.5hPa NE 3.0mph /  4.8km/h 7.0mph /  11.3km/h 89% 0.00in /  0mm
21:39 26.4 °F /  -3.1 °C 23.6 °F /  -4.7 °C 30.14in /  1020.5hPa NE 5.0mph /  8km/h 7.0mph /  11.3km/h 89% 0.00in /  0mm
21:44 26.5 °F /  -3.1 °C 23.7 °F /  -4.6 °C 30.14in /  1020.5hPa NE 5.0mph /  8km/h 6.0mph /  9.7km/h 89% 0.00in /  0mm
21:49 26.5 °F /  -3.1 °C 23.7 °F /  -4.6 °C 30.15in /  1020.9hPa NE 3.0mph /  4.8km/h 7.0mph /  11.3km/h 89% 0.00in /  0mm
21:54 26.4 °F /  -3.1 °C 23.6 °F /  -4.7 °C 30.14in /  1020.5hPa NE 3.0mph /  4.8km/h 7.0mph /  11.3km/h 89% 0.00in /  0mm
21:59 26.4 °F /  -3.1 °C 23.6 °F /  -4.7 °C 30.15in /  1020.9hPa NE 3.0mph /  4.8km/h 6.0mph /  9.7km/h 89% 0.00in /  0mm
22:04 26.4 °F /  -3.1 °C 23.6 °F /  -4.7 °C 30.14in /  1020.5hPa NE 2.0mph /  3.2km/h 8.0mph /  12.9km/h 89% 0.00in /  0mm
22:09 26.4 °F /  -3.1 °C 23.6 °F /  -4.7 °C 30.15in /  1020.9hPa NE 2.0mph /  3.2km/h 7.0mph /  11.3km/h 89% 0.00in /  0mm
22:14 26.4 °F /  -3.1 °C 23.6 °F /  -4.7 °C 30.15in /  1020.9hPa NE 3.0mph /  4.8km/h 7.0mph /  11.3km/h 89% 0.00in /  0mm
22:19 26.4 °F /  -3.1 °C 23.6 °F /  -4.7 °C 30.15in /  1020.9hPa NE 3.0mph /  4.8km/h 5.0mph /  8km/h 89% 0.00in /  0mm
22:24 26.5 °F /  -3.1 °C 23.7 °F /  -4.6 °C 30.15in /  1020.9hPa NE 3.0mph /  4.8km/h 6.0mph /  9.7km/h 89% 0.00in /  0mm
22:29 26.5 °F /  -3.1 °C 23.7 °F /  -4.6 °C 30.16in /  1021.2hPa NE 3.0mph /  4.8km/h 6.0mph /  9.7km/h 89% 0.00in /  0mm
22:34 26.5 °F /  -3.1 °C 23.7 °F /  -4.6 °C 30.16in /  1021.2hPa NE 2.0mph /  3.2km/h 5.0mph /  8km/h 89% 0.00in /  0mm
22:39 26.5 °F /  -3.1 °C 23.7 °F /  -4.6 °C 30.16in /  1021.2hPa NE 2.0mph /  3.2km/h 6.0mph /  9.7km/h 89% 0.00in /  0mm
22:44 26.4 °F /  -3.1 °C 23.6 °F /  -4.7 °C 30.16in /  1021.2hPa NE 3.0mph /  4.8km/h 6.0mph /  9.7km/h 89% 0.00in /  0mm
22:49 26.5 °F /  -3.1 °C 23.7 °F /  -4.6 °C 30.16in /  1021.2hPa NE 6.0mph /  9.7km/h 6.0mph /  9.7km/h 89% 0.00in /  0mm
22:54 26.4 °F /  -3.1 °C 23.6 °F /  -4.7 °C 30.15in /  1020.9hPa NE 3.0mph /  4.8km/h 6.0mph /  9.7km/h 89% 0.00in /  0mm
22:59 26.4 °F /  -3.1 °C 23.6 °F /  -4.7 °C 30.16in /  1021.2hPa NE 3.0mph /  4.8km/h 6.0mph /  9.7km/h 89% 0.00in /  0mm
23:04 26.4 °F /  -3.1 °C 23.6 °F /  -4.7 °C 30.15in /  1020.9hPa North 3.0mph /  4.8km/h 5.0mph /  8km/h 89% 0.00in /  0mm
23:09 26.4 °F /  -3.1 °C 23.6 °F /  -4.7 °C 30.15in /  1020.9hPa NNE 3.0mph /  4.8km/h 5.0mph /  8km/h 89% 0.00in /  0mm
23:14 26.4 °F /  -3.1 °C 23.6 °F /  -4.7 °C 30.15in /  1020.9hPa NE 2.0mph /  3.2km/h 6.0mph /  9.7km/h 89% 0.00in /  0mm
23:19 26.4 °F /  -3.1 °C 23.6 °F /  -4.7 °C 30.15in /  1020.9hPa NNE 2.0mph /  3.2km/h 5.0mph /  8km/h 89% 0.00in /  0mm
23:24 26.3 °F /  -3.2 °C 23.5 °F /  -4.7 °C 30.15in /  1020.9hPa NE 2.0mph /  3.2km/h 6.0mph /  9.7km/h 89% 0.00in /  0mm
23:29 26.4 °F /  -3.1 °C 23.6 °F /  -4.7 °C 30.15in /  1020.9hPa NNE 3.0mph /  4.8km/h 4.0mph /  6.4km/h 89% 0.00in /  0mm
23:34 26.3 °F /  -3.2 °C 23.5 °F /  -4.7 °C 30.15in /  1020.9hPa NE 3.0mph /  4.8km/h 8.0mph /  12.9km/h 89% 0.00in /  0mm
23:39 26.3 °F /  -3.2 °C 23.5 °F /  -4.7 °C 30.15in /  1020.9hPa NE 3.0mph /  4.8km/h 8.0mph /  12.9km/h 89% 0.00in /  0mm
23:44 26.3 °F /  -3.2 °C 23.5 °F /  -4.7 °C 30.15in /  1020.9hPa NE 3.0mph /  4.8km/h 7.0mph /  11.3km/h 89% 0.00in /  0mm
23:49 26.3 °F /  -3.2 °C 23.5 °F /  -4.7 °C 30.14in /  1020.5hPa NE 4.0mph /  6.4km/h 7.0mph /  11.3km/h 89% 0.00in /  0mm
23:54 26.3 °F /  -3.2 °C 23.5 °F /  -4.7 °C 30.14in /  1020.5hPa NE 4.0mph /  6.4km/h 9.0mph /  14.5km/h 89% 0.00in /  0mm
23:59 26.2 °F /  -3.2 °C 23.4 °F /  -4.8 °C 30.14in /  1020.5hPa NE 5.0mph /  8km/h 9.0mph /  14.5km/h 89% 0.00in /  0mm
Buffalo, New York, USA
Compliments of Weather Underground - 2.5 mb